EmailTwitter


Observations de surface / France / LFMK (07635)

Régions: Québec | Canada | États-Unis | Europe | France | UK | Ailleurs
Station
Affichage
Infos & localisation pour LFMK (07635) | Aide pour décoder les METARs

Observations prises le 2017-11-17 à 23H00 UTC à CARCASSONNE/SALV, FR (LFMK)

Température: 9.0 Celsius

Point de rosée: 5.0 Celsius

Humidité relative: 76%

Facteur vent: 7.

Vents: Ouest à 15 km/h ou 8 noeuds.

Pression au niveau moyen de la mer: 102.20 kilopascals.

Observation METAR:

LFMK 172300Z AUTO 27008KT CAVOK 09/05 Q1022=